sensor_id;sensor_type;location;lat;lon;timestamp;P1;durP1;ratioP1;P2;durP2;ratioP2
63444;SDS011;49573;47.682;9.170;2023-04-24T00:01:14;3.25;;;1.50;;
63444;SDS011;49573;47.682;9.170;2023-04-24T00:04:00;3.30;;;1.60;;
63444;SDS011;49573;47.682;9.170;2023-04-24T00:06:46;3.38;;;1.58;;
63444;SDS011;49573;47.682;9.170;2023-04-24T00:09:39;3.17;;;1.30;;
63444;SDS011;49573;47.682;9.170;2023-04-24T00:12:26;3.30;;;1.75;;
63444;SDS011;49573;47.682;9.170;2023-04-24T00:15:12;3.60;;;1.20;;
63444;SDS011;49573;47.682;9.170;2023-04-24T00:17:58;2.88;;;1.40;;
63444;SDS011;49573;47.682;9.170;2023-04-24T00:20:46;3.85;;;1.50;;
63444;SDS011;49573;47.682;9.170;2023-04-24T00:23:32;1.73;;;1.43;;
63444;SDS011;49573;47.682;9.170;2023-04-24T00:26:18;2.45;;;1.35;;
63444;SDS011;49573;47.682;9.170;2023-04-24T00:29:06;2.47;;;1.75;;
63444;SDS011;49573;47.682;9.170;2023-04-24T00:31:54;2.53;;;1.60;;
63444;SDS011;49573;47.682;9.170;2023-04-24T00:34:41;3.55;;;1.75;;
63444;SDS011;49573;47.682;9.170;2023-04-24T00:37:27;1.95;;;1.58;;
63444;SDS011;49573;47.682;9.170;2023-04-24T00:40:14;3.60;;;1.73;;
63444;SDS011;49573;47.682;9.170;2023-04-24T00:43:00;3.65;;;1.75;;
63444;SDS011;49573;47.682;9.170;2023-04-24T00:45:48;6.18;;;1.65;;
63444;SDS011;49573;47.682;9.170;2023-04-24T00:48:34;3.97;;;1.65;;
63444;SDS011;49573;47.682;9.170;2023-04-24T00:51:20;4.43;;;1.67;;
63444;SDS011;49573;47.682;9.170;2023-04-24T00:54:06;3.92;;;1.45;;
63444;SDS011;49573;47.682;9.170;2023-04-24T00:56:52;2.55;;;1.90;;
63444;SDS011;49573;47.682;9.170;2023-04-24T00:59:38;2.92;;;1.50;;
63444;SDS011;49573;47.682;9.170;2023-04-24T01:02:27;3.08;;;1.45;;
63444;SDS011;49573;47.682;9.170;2023-04-24T01:05:15;2.78;;;1.55;;
63444;SDS011;49573;47.682;9.170;2023-04-24T01:08:02;4.28;;;1.77;;
63444;SDS011;49573;47.682;9.170;2023-04-24T01:10:48;5.13;;;2.00;;
63444;SDS011;49573;47.682;9.170;2023-04-24T01:13:37;1.80;;;1.60;;
63444;SDS011;49573;47.682;9.170;2023-04-24T01:16:23;5.15;;;1.75;;
63444;SDS011;49573;47.682;9.170;2023-04-24T01:19:10;2.23;;;1.60;;
63444;SDS011;49573;47.682;9.170;2023-04-24T01:21:58;1.98;;;1.40;;
63444;SDS011;49573;47.682;9.170;2023-04-24T01:24:48;1.83;;;1.00;;
63444;SDS011;49573;47.682;9.170;2023-04-24T01:27:34;1.60;;;1.00;;
63444;SDS011;49573;47.682;9.170;2023-04-24T01:30:20;0.82;;;0.77;;
63444;SDS011;49573;47.682;9.170;2023-04-24T01:33:06;3.58;;;1.05;;
63444;SDS011;49573;47.682;9.170;2023-04-24T01:35:53;1.08;;;0.77;;
63444;SDS011;49573;47.682;9.170;2023-04-24T01:38:39;2.97;;;1.20;;
63444;SDS011;49573;47.682;9.170;2023-04-24T01:41:27;1.33;;;0.85;;
63444;SDS011;49573;47.682;9.170;2023-04-24T01:44:13;1.67;;;1.02;;
63444;SDS011;49573;47.682;9.170;2023-04-24T01:47:00;2.47;;;0.77;;
63444;SDS011;49573;47.682;9.170;2023-04-24T01:49:46;0.88;;;0.60;;
63444;SDS011;49573;47.682;9.170;2023-04-24T01:52:33;1.00;;;0.68;;
63444;SDS011;49573;47.682;9.170;2023-04-24T01:55:21;1.83;;;0.80;;
63444;SDS011;49573;47.682;9.170;2023-04-24T01:58:08;1.33;;;0.70;;
63444;SDS011;49573;47.682;9.170;2023-04-24T02:00:55;1.27;;;0.60;;
63444;SDS011;49573;47.682;9.170;2023-04-24T02:03:41;1.58;;;0.80;;
63444;SDS011;49573;47.682;9.170;2023-04-24T02:06:27;2.13;;;0.80;;
63444;SDS011;49573;47.682;9.170;2023-04-24T02:09:13;1.63;;;0.80;;
63444;SDS011;49573;47.682;9.170;2023-04-24T02:11:59;4.07;;;0.82;;
63444;SDS011;49573;47.682;9.170;2023-04-24T02:14:47;1.00;;;0.67;;
63444;SDS011;49573;47.682;9.170;2023-04-24T02:17:33;0.65;;;0.63;;
63444;SDS011;49573;47.682;9.170;2023-04-24T02:20:19;3.60;;;0.77;;
63444;SDS011;49573;47.682;9.170;2023-04-24T02:23:05;1.65;;;0.98;;
63444;SDS011;49573;47.682;9.170;2023-04-24T02:25:51;1.80;;;0.68;;
63444;SDS011;49573;47.682;9.170;2023-04-24T02:31:25;0.93;;;0.60;;
63444;SDS011;49573;47.682;9.170;2023-04-24T02:34:11;0.75;;;0.50;;
63444;SDS011;49573;47.682;9.170;2023-04-24T02:36:57;0.75;;;0.75;;
63444;SDS011;49573;47.682;9.170;2023-04-24T02:39:43;0.90;;;0.50;;
63444;SDS011;49573;47.682;9.170;2023-04-24T02:42:29;1.73;;;0.70;;
63444;SDS011;49573;47.682;9.170;2023-04-24T02:45:15;2.22;;;0.70;;
63444;SDS011;49573;47.682;9.170;2023-04-24T02:48:03;0.73;;;0.40;;
63444;SDS011;49573;47.682;9.170;2023-04-24T02:50:49;0.90;;;0.60;;
63444;SDS011;49573;47.682;9.170;2023-04-24T02:53:36;2.10;;;0.57;;
63444;SDS011;49573;47.682;9.170;2023-04-24T02:56:22;0.85;;;0.57;;
63444;SDS011;49573;47.682;9.170;2023-04-24T02:59:08;0.60;;;0.50;;
63444;SDS011;49573;47.682;9.170;2023-04-24T03:01:55;0.63;;;0.45;;
63444;SDS011;49573;47.682;9.170;2023-04-24T03:04:43;2.15;;;0.60;;
63444;SDS011;49573;47.682;9.170;2023-04-24T03:07:29;1.85;;;0.80;;
63444;SDS011;49573;47.682;9.170;2023-04-24T03:10:16;0.50;;;0.50;;
63444;SDS011;49573;47.682;9.170;2023-04-24T03:13:02;0.97;;;0.77;;
63444;SDS011;49573;47.682;9.170;2023-04-24T03:15:48;2.85;;;0.57;;
63444;SDS011;49573;47.682;9.170;2023-04-24T03:18:34;1.27;;;0.97;;
63444;SDS011;49573;47.682;9.170;2023-04-24T03:21:22;1.55;;;0.85;;
63444;SDS011;49573;47.682;9.170;2023-04-24T03:24:08;0.75;;;0.60;;
63444;SDS011;49573;47.682;9.170;2023-04-24T03:26:54;1.67;;;0.80;;
63444;SDS011;49573;47.682;9.170;2023-04-24T03:29:42;0.73;;;0.47;;
63444;SDS011;49573;47.682;9.170;2023-04-24T03:32:28;0.90;;;0.50;;
63444;SDS011;49573;47.682;9.170;2023-04-24T03:35:14;0.60;;;0.50;;
63444;SDS011;49573;47.682;9.170;2023-04-24T03:38:01;0.77;;;0.40;;
63444;SDS011;49573;47.682;9.170;2023-04-24T03:40:49;0.63;;;0.57;;
63444;SDS011;49573;47.682;9.170;2023-04-24T03:43:35;0.25;;;0.25;;
63444;SDS011;49573;47.682;9.170;2023-04-24T03:46:24;1.20;;;0.60;;
63444;SDS011;49573;47.682;9.170;2023-04-24T03:49:10;2.28;;;0.80;;
63444;SDS011;49573;47.682;9.170;2023-04-24T03:51:56;0.73;;;0.50;;
63444;SDS011;49573;47.682;9.170;2023-04-24T03:54:43;2.20;;;0.47;;
63444;SDS011;49573;47.682;9.170;2023-04-24T03:57:30;0.65;;;0.40;;
63444;SDS011;49573;47.682;9.170;2023-04-24T04:00:16;0.63;;;0.40;;
63444;SDS011;49573;47.682;9.170;2023-04-24T04:03:02;0.20;;;0.20;;
63444;SDS011;49573;47.682;9.170;2023-04-24T04:05:48;1.45;;;0.50;;
63444;SDS011;49573;47.682;9.170;2023-04-24T04:08:34;0.45;;;0.40;;
63444;SDS011;49573;47.682;9.170;2023-04-24T04:11:22;1.60;;;0.60;;
63444;SDS011;49573;47.682;9.170;2023-04-24T04:14:08;0.93;;;0.38;;
63444;SDS011;49573;47.682;9.170;2023-04-24T04:16:54;1.13;;;0.50;;
63444;SDS011;49573;47.682;9.170;2023-04-24T04:19:40;1.20;;;0.70;;
63444;SDS011;49573;47.682;9.170;2023-04-24T04:22:26;1.10;;;0.57;;
63444;SDS011;49573;47.682;9.170;2023-04-24T04:25:12;1.17;;;0.75;;
63444;SDS011;49573;47.682;9.170;2023-04-24T04:28:00;1.67;;;0.50;;
63444;SDS011;49573;47.682;9.170;2023-04-24T04:30:47;0.40;;;0.40;;
63444;SDS011;49573;47.682;9.170;2023-04-24T04:33:33;0.88;;;0.40;;
63444;SDS011;49573;47.682;9.170;2023-04-24T04:36:19;0.60;;;0.30;;
63444;SDS011;49573;47.682;9.170;2023-04-24T04:39:05;0.52;;;0.22;;
63444;SDS011;49573;47.682;9.170;2023-04-24T04:41:52;0.52;;;0.25;;
63444;SDS011;49573;47.682;9.170;2023-04-24T04:44:39;0.28;;;0.28;;
63444;SDS011;49573;47.682;9.170;2023-04-24T04:47:26;1.13;;;0.70;;
63444;SDS011;49573;47.682;9.170;2023-04-24T04:50:13;1.13;;;0.80;;
63444;SDS011;49573;47.682;9.170;2023-04-24T04:52:59;0.47;;;0.40;;
63444;SDS011;49573;47.682;9.170;2023-04-24T04:55:46;0.67;;;0.60;;
63444;SDS011;49573;47.682;9.170;2023-04-24T04:58:32;1.35;;;0.50;;
63444;SDS011;49573;47.682;9.170;2023-04-24T05:01:19;0.95;;;0.68;;
63444;SDS011;49573;47.682;9.170;2023-04-24T05:04:06;1.10;;;0.50;;
63444;SDS011;49573;47.682;9.170;2023-04-24T05:06:52;3.47;;;0.90;;
63444;SDS011;49573;47.682;9.170;2023-04-24T05:09:38;1.10;;;0.40;;
63444;SDS011;49573;47.682;9.170;2023-04-24T05:12:24;1.95;;;0.60;;
63444;SDS011;49573;47.682;9.170;2023-04-24T05:15:11;0.60;;;0.50;;
63444;SDS011;49573;47.682;9.170;2023-04-24T05:17:58;0.30;;;0.30;;
63444;SDS011;49573;47.682;9.170;2023-04-24T05:20:44;1.17;;;0.50;;
63444;SDS011;49573;47.682;9.170;2023-04-24T05:23:30;1.20;;;0.45;;
63444;SDS011;49573;47.682;9.170;2023-04-24T05:26:16;0.40;;;0.40;;
63444;SDS011;49573;47.682;9.170;2023-04-24T05:29:03;0.90;;;0.60;;
63444;SDS011;49573;47.682;9.170;2023-04-24T05:31:49;0.90;;;0.73;;
63444;SDS011;49573;47.682;9.170;2023-04-24T05:34:36;0.68;;;0.50;;
63444;SDS011;49573;47.682;9.170;2023-04-24T05:37:23;1.30;;;0.45;;
63444;SDS011;49573;47.682;9.170;2023-04-24T05:40:10;3.30;;;0.93;;
63444;SDS011;49573;47.682;9.170;2023-04-24T05:42:56;0.75;;;0.73;;
63444;SDS011;49573;47.682;9.170;2023-04-24T05:45:42;0.35;;;0.35;;
63444;SDS011;49573;47.682;9.170;2023-04-24T05:48:28;1.42;;;0.60;;
63444;SDS011;49573;47.682;9.170;2023-04-24T05:51:16;0.75;;;0.57;;
63444;SDS011;49573;47.682;9.170;2023-04-24T05:54:02;0.82;;;0.70;;
63444;SDS011;49573;47.682;9.170;2023-04-24T05:56:49;0.97;;;0.70;;
63444;SDS011;49573;47.682;9.170;2023-04-24T05:59:36;1.02;;;0.85;;
63444;SDS011;49573;47.682;9.170;2023-04-24T06:02:23;1.23;;;0.93;;
63444;SDS011;49573;47.682;9.170;2023-04-24T06:05:09;2.25;;;1.15;;
63444;SDS011;49573;47.682;9.170;2023-04-24T06:07:57;2.85;;;1.17;;
63444;SDS011;49573;47.682;9.170;2023-04-24T06:10:43;3.47;;;1.50;;
63444;SDS011;49573;47.682;9.170;2023-04-24T06:13:29;1.48;;;0.95;;
63444;SDS011;49573;47.682;9.170;2023-04-24T06:16:15;1.35;;;1.20;;
63444;SDS011;49573;47.682;9.170;2023-04-24T06:19:01;2.10;;;1.13;;
63444;SDS011;49573;47.682;9.170;2023-04-24T06:21:47;1.58;;;1.10;;
63444;SDS011;49573;47.682;9.170;2023-04-24T06:24:34;2.70;;;1.20;;
63444;SDS011;49573;47.682;9.170;2023-04-24T06:27:20;1.63;;;1.38;;
63444;SDS011;49573;47.682;9.170;2023-04-24T06:30:07;3.15;;;1.50;;
63444;SDS011;49573;47.682;9.170;2023-04-24T06:32:54;2.40;;;1.33;;
63444;SDS011;49573;47.682;9.170;2023-04-24T06:35:40;2.70;;;1.23;;
63444;SDS011;49573;47.682;9.170;2023-04-24T06:38:26;2.83;;;1.50;;
63444;SDS011;49573;47.682;9.170;2023-04-24T06:41:16;2.45;;;1.60;;
63444;SDS011;49573;47.682;9.170;2023-04-24T06:44:02;2.97;;;1.80;;
63444;SDS011;49573;47.682;9.170;2023-04-24T06:46:48;3.70;;;1.50;;
63444;SDS011;49573;47.682;9.170;2023-04-24T06:49:34;2.58;;;1.75;;
63444;SDS011;49573;47.682;9.170;2023-04-24T06:52:20;3.03;;;1.77;;
63444;SDS011;49573;47.682;9.170;2023-04-24T06:55:07;2.45;;;1.70;;
63444;SDS011;49573;47.682;9.170;2023-04-24T06:57:55;2.30;;;1.48;;
63444;SDS011;49573;47.682;9.170;2023-04-24T07:00:41;4.95;;;1.90;;
63444;SDS011;49573;47.682;9.170;2023-04-24T07:03:27;2.38;;;1.70;;
63444;SDS011;49573;47.682;9.170;2023-04-24T07:06:13;2.57;;;1.90;;
63444;SDS011;49573;47.682;9.170;2023-04-24T07:08:59;2.90;;;2.00;;
63444;SDS011;49573;47.682;9.170;2023-04-24T07:11:46;2.97;;;1.70;;
63444;SDS011;49573;47.682;9.170;2023-04-24T07:14:34;2.72;;;1.67;;
63444;SDS011;49573;47.682;9.170;2023-04-24T07:17:20;2.95;;;1.75;;
63444;SDS011;49573;47.682;9.170;2023-04-24T07:20:06;4.07;;;1.85;;
63444;SDS011;49573;47.682;9.170;2023-04-24T07:22:55;2.83;;;1.88;;
63444;SDS011;49573;47.682;9.170;2023-04-24T07:25:41;2.42;;;1.73;;
63444;SDS011;49573;47.682;9.170;2023-04-24T07:28:27;2.35;;;1.95;;
63444;SDS011;49573;47.682;9.170;2023-04-24T07:31:17;2.58;;;1.73;;
63444;SDS011;49573;47.682;9.170;2023-04-24T07:34:03;5.43;;;2.03;;
63444;SDS011;49573;47.682;9.170;2023-04-24T07:36:49;3.75;;;1.92;;
63444;SDS011;49573;47.682;9.170;2023-04-24T07:39:36;4.57;;;2.10;;
63444;SDS011;49573;47.682;9.170;2023-04-24T07:42:22;3.50;;;2.20;;
63444;SDS011;49573;47.682;9.170;2023-04-24T07:45:08;3.10;;;1.85;;
63444;SDS011;49573;47.682;9.170;2023-04-24T07:47:55;2.95;;;2.08;;
63444;SDS011;49573;47.682;9.170;2023-04-24T07:50:42;4.68;;;2.20;;
63444;SDS011;49573;47.682;9.170;2023-04-24T07:53:28;3.67;;;2.53;;
63444;SDS011;49573;47.682;9.170;2023-04-24T07:56:14;3.00;;;1.95;;
63444;SDS011;49573;47.682;9.170;2023-04-24T07:59:00;4.32;;;1.95;;
63444;SDS011;49573;47.682;9.170;2023-04-24T08:01:46;3.45;;;2.20;;
63444;SDS011;49573;47.682;9.170;2023-04-24T08:04:34;3.58;;;2.22;;
63444;SDS011;49573;47.682;9.170;2023-04-24T08:07:20;4.95;;;1.80;;
63444;SDS011;49573;47.682;9.170;2023-04-24T08:10:06;3.13;;;1.93;;
63444;SDS011;49573;47.682;9.170;2023-04-24T08:12:53;3.42;;;2.05;;
63444;SDS011;49573;47.682;9.170;2023-04-24T08:15:40;5.20;;;2.00;;
63444;SDS011;49573;47.682;9.170;2023-04-24T08:18:26;2.83;;;1.70;;
63444;SDS011;49573;47.682;9.170;2023-04-24T08:21:14;2.83;;;1.80;;
63444;SDS011;49573;47.682;9.170;2023-04-24T08:24:02;2.97;;;1.60;;
63444;SDS011;49573;47.682;9.170;2023-04-24T08:26:52;4.00;;;1.77;;
63444;SDS011;49573;47.682;9.170;2023-04-24T08:29:39;3.20;;;1.65;;
63444;SDS011;49573;47.682;9.170;2023-04-24T08:32:25;4.07;;;2.00;;
63444;SDS011;49573;47.682;9.170;2023-04-24T08:35:14;3.75;;;1.90;;
63444;SDS011;49573;47.682;9.170;2023-04-24T08:38:02;3.93;;;1.73;;
63444;SDS011;49573;47.682;9.170;2023-04-24T08:40:48;3.03;;;1.73;;
63444;SDS011;49573;47.682;9.170;2023-04-24T08:43:34;3.47;;;2.15;;
63444;SDS011;49573;47.682;9.170;2023-04-24T08:46:22;2.72;;;1.70;;
63444;SDS011;49573;47.682;9.170;2023-04-24T08:51:55;4.45;;;1.90;;
63444;SDS011;49573;47.682;9.170;2023-04-24T08:54:43;3.58;;;1.90;;
63444;SDS011;49573;47.682;9.170;2023-04-24T08:57:31;4.13;;;2.28;;
63444;SDS011;49573;47.682;9.170;2023-04-24T09:03:05;4.00;;;1.80;;
63444;SDS011;49573;47.682;9.170;2023-04-24T09:05:52;5.20;;;2.58;;
63444;SDS011;49573;47.682;9.170;2023-04-24T09:08:39;6.47;;;2.50;;
63444;SDS011;49573;47.682;9.170;2023-04-24T09:11:30;4.88;;;2.70;;
63444;SDS011;49573;47.682;9.170;2023-04-24T09:14:17;3.75;;;2.25;;
63444;SDS011;49573;47.682;9.170;2023-04-24T09:17:05;2.60;;;1.80;;
63444;SDS011;49573;47.682;9.170;2023-04-24T09:19:51;4.60;;;2.08;;
63444;SDS011;49573;47.682;9.170;2023-04-24T09:22:37;4.07;;;1.77;;
63444;SDS011;49573;47.682;9.170;2023-04-24T09:25:25;3.30;;;2.00;;
63444;SDS011;49573;47.682;9.170;2023-04-24T09:28:18;3.83;;;2.00;;
63444;SDS011;49573;47.682;9.170;2023-04-24T09:31:05;5.13;;;1.80;;
63444;SDS011;49573;47.682;9.170;2023-04-24T09:33:56;3.38;;;1.90;;
63444;SDS011;49573;47.682;9.170;2023-04-24T09:36:43;5.00;;;1.92;;
63444;SDS011;49573;47.682;9.170;2023-04-24T09:39:29;3.63;;;1.90;;
63444;SDS011;49573;47.682;9.170;2023-04-24T09:42:15;5.03;;;2.10;;
63444;SDS011;49573;47.682;9.170;2023-04-24T09:45:04;4.17;;;2.17;;
63444;SDS011;49573;47.682;9.170;2023-04-24T09:47:53;3.15;;;2.00;;
63444;SDS011;49573;47.682;9.170;2023-04-24T09:50:42;2.83;;;2.00;;
63444;SDS011;49573;47.682;9.170;2023-04-24T09:53:31;6.32;;;3.13;;
63444;SDS011;49573;47.682;9.170;2023-04-24T09:56:17;3.28;;;1.92;;
63444;SDS011;49573;47.682;9.170;2023-04-24T09:59:05;5.30;;;1.90;;
63444;SDS011;49573;47.682;9.170;2023-04-24T10:01:53;3.05;;;2.05;;
63444;SDS011;49573;47.682;9.170;2023-04-24T10:04:40;2.95;;;2.10;;
63444;SDS011;49573;47.682;9.170;2023-04-24T10:07:26;7.07;;;2.40;;
63444;SDS011;49573;47.682;9.170;2023-04-24T10:10:12;4.93;;;2.07;;
63444;SDS011;49573;47.682;9.170;2023-04-24T10:12:59;3.33;;;1.80;;
63444;SDS011;49573;47.682;9.170;2023-04-24T10:15:45;3.83;;;1.90;;
63444;SDS011;49573;47.682;9.170;2023-04-24T10:18:34;3.58;;;1.98;;
63444;SDS011;49573;47.682;9.170;2023-04-24T10:21:20;2.97;;;2.10;;
63444;SDS011;49573;47.682;9.170;2023-04-24T10:24:07;2.78;;;1.88;;
63444;SDS011;49573;47.682;9.170;2023-04-24T10:26:53;3.97;;;2.00;;
63444;SDS011;49573;47.682;9.170;2023-04-24T10:29:40;5.63;;;2.15;;
63444;SDS011;49573;47.682;9.170;2023-04-24T10:32:29;4.38;;;2.20;;
63444;SDS011;49573;47.682;9.170;2023-04-24T10:35:17;3.30;;;2.10;;
63444;SDS011;49573;47.682;9.170;2023-04-24T10:38:05;3.42;;;1.90;;
63444;SDS011;49573;47.682;9.170;2023-04-24T10:40:57;5.07;;;2.00;;
63444;SDS011;49573;47.682;9.170;2023-04-24T10:44:03;2.95;;;1.80;;
63444;SDS011;49573;47.682;9.170;2023-04-24T10:46:52;3.10;;;1.70;;
63444;SDS011;49573;47.682;9.170;2023-04-24T10:49:40;4.88;;;2.00;;
63444;SDS011;49573;47.682;9.170;2023-04-24T10:55:41;3.45;;;2.03;;
63444;SDS011;49573;47.682;9.170;2023-04-24T10:58:35;4.65;;;1.80;;
63444;SDS011;49573;47.682;9.170;2023-04-24T11:01:24;4.65;;;2.15;;
63444;SDS011;49573;47.682;9.170;2023-04-24T11:04:11;4.10;;;2.20;;
63444;SDS011;49573;47.682;9.170;2023-04-24T11:06:57;3.28;;;2.00;;
63444;SDS011;49573;47.682;9.170;2023-04-24T11:09:45;2.37;;;1.80;;
63444;SDS011;49573;47.682;9.170;2023-04-24T11:12:34;4.60;;;2.15;;
63444;SDS011;49573;47.682;9.170;2023-04-24T11:15:20;2.80;;;1.90;;
63444;SDS011;49573;47.682;9.170;2023-04-24T11:18:06;4.88;;;2.05;;
63444;SDS011;49573;47.682;9.170;2023-04-24T11:20:54;4.53;;;2.20;;
63444;SDS011;49573;47.682;9.170;2023-04-24T11:23:40;3.72;;;2.00;;
63444;SDS011;49573;47.682;9.170;2023-04-24T11:26:27;2.60;;;1.60;;
63444;SDS011;49573;47.682;9.170;2023-04-24T11:29:18;3.42;;;1.83;;
63444;SDS011;49573;47.682;9.170;2023-04-24T11:32:19;3.00;;;2.03;;
63444;SDS011;49573;47.682;9.170;2023-04-24T11:35:13;2.70;;;1.88;;
63444;SDS011;49573;47.682;9.170;2023-04-24T11:38:01;5.03;;;1.90;;
63444;SDS011;49573;47.682;9.170;2023-04-24T11:40:48;3.95;;;2.42;;
63444;SDS011;49573;47.682;9.170;2023-04-24T11:43:36;4.10;;;2.00;;
63444;SDS011;49573;47.682;9.170;2023-04-24T11:46:23;3.88;;;1.95;;
63444;SDS011;49573;47.682;9.170;2023-04-24T11:49:13;4.07;;;1.80;;
63444;SDS011;49573;47.682;9.170;2023-04-24T11:51:59;2.90;;;1.95;;
63444;SDS011;49573;47.682;9.170;2023-04-24T11:54:47;5.75;;;2.10;;
63444;SDS011;49573;47.682;9.170;2023-04-24T11:57:34;2.90;;;1.88;;
63444;SDS011;49573;47.682;9.170;2023-04-24T12:00:23;3.22;;;1.85;;
63444;SDS011;49573;47.682;9.170;2023-04-24T12:03:11;2.75;;;1.80;;
63444;SDS011;49573;47.682;9.170;2023-04-24T12:06:06;5.18;;;1.92;;
63444;SDS011;49573;47.682;9.170;2023-04-24T12:08:53;4.18;;;1.77;;
63444;SDS011;49573;47.682;9.170;2023-04-24T12:14:44;4.13;;;2.00;;
63444;SDS011;49573;47.682;9.170;2023-04-24T12:17:35;3.75;;;1.90;;
63444;SDS011;49573;47.682;9.170;2023-04-24T12:20:24;4.25;;;2.10;;
63444;SDS011;49573;47.682;9.170;2023-04-24T12:23:12;3.53;;;2.20;;
63444;SDS011;49573;47.682;9.170;2023-04-24T12:25:59;4.70;;;2.10;;
63444;SDS011;49573;47.682;9.170;2023-04-24T12:28:47;4.55;;;1.90;;
63444;SDS011;49573;47.682;9.170;2023-04-24T12:31:34;2.72;;;1.80;;
63444;SDS011;49573;47.682;9.170;2023-04-24T12:34:22;2.43;;;1.77;;
63444;SDS011;49573;47.682;9.170;2023-04-24T12:37:10;3.17;;;1.75;;
63444;SDS011;49573;47.682;9.170;2023-04-24T12:40:03;4.45;;;2.10;;
63444;SDS011;49573;47.682;9.170;2023-04-24T12:42:53;5.85;;;1.90;;
63444;SDS011;49573;47.682;9.170;2023-04-24T12:45:40;2.45;;;2.00;;
63444;SDS011;49573;47.682;9.170;2023-04-24T12:48:26;4.57;;;2.10;;
63444;SDS011;49573;47.682;9.170;2023-04-24T12:51:14;4.07;;;2.28;;
63444;SDS011;49573;47.682;9.170;2023-04-24T12:54:00;3.28;;;2.05;;
63444;SDS011;49573;47.682;9.170;2023-04-24T12:56:46;5.03;;;1.93;;
63444;SDS011;49573;47.682;9.170;2023-04-24T12:59:32;4.45;;;1.80;;
63444;SDS011;49573;47.682;9.170;2023-04-24T13:02:18;3.63;;;1.77;;
63444;SDS011;49573;47.682;9.170;2023-04-24T13:05:04;2.47;;;1.87;;
63444;SDS011;49573;47.682;9.170;2023-04-24T13:07:52;4.63;;;2.17;;
63444;SDS011;49573;47.682;9.170;2023-04-24T13:10:38;3.67;;;1.88;;
63444;SDS011;49573;47.682;9.170;2023-04-24T13:13:25;2.65;;;2.25;;
63444;SDS011;49573;47.682;9.170;2023-04-24T13:16:11;7.03;;;2.67;;
63444;SDS011;49573;47.682;9.170;2023-04-24T13:18:57;2.85;;;1.95;;
63444;SDS011;49573;47.682;9.170;2023-04-24T13:21:43;3.90;;;2.10;;
63444;SDS011;49573;47.682;9.170;2023-04-24T13:24:31;3.58;;;2.30;;
63444;SDS011;49573;47.682;9.170;2023-04-24T13:27:17;3.38;;;2.35;;
63444;SDS011;49573;47.682;9.170;2023-04-24T13:30:04;9.02;;;2.33;;
63444;SDS011;49573;47.682;9.170;2023-04-24T13:32:51;2.95;;;1.90;;
63444;SDS011;49573;47.682;9.170;2023-04-24T13:35:37;2.43;;;1.83;;
63444;SDS011;49573;47.682;9.170;2023-04-24T13:38:23;3.22;;;2.05;;
63444;SDS011;49573;47.682;9.170;2023-04-24T13:41:10;3.13;;;1.92;;
63444;SDS011;49573;47.682;9.170;2023-04-24T13:43:56;3.15;;;2.03;;
63444;SDS011;49573;47.682;9.170;2023-04-24T13:46:42;2.67;;;1.90;;
63444;SDS011;49573;47.682;9.170;2023-04-24T13:49:30;4.18;;;1.85;;
63444;SDS011;49573;47.682;9.170;2023-04-24T13:52:18;5.57;;;2.10;;
63444;SDS011;49573;47.682;9.170;2023-04-24T13:55:05;3.00;;;2.00;;
63444;SDS011;49573;47.682;9.170;2023-04-24T14:00:40;3.45;;;1.92;;
63444;SDS011;49573;47.682;9.170;2023-04-24T14:03:26;3.50;;;2.10;;
63444;SDS011;49573;47.682;9.170;2023-04-24T14:06:12;3.45;;;2.13;;
63444;SDS011;49573;47.682;9.170;2023-04-24T14:08:58;3.47;;;2.00;;
63444;SDS011;49573;47.682;9.170;2023-04-24T14:11:44;3.53;;;1.80;;
63444;SDS011;49573;47.682;9.170;2023-04-24T14:14:32;3.88;;;2.08;;
63444;SDS011;49573;47.682;9.170;2023-04-24T14:17:18;3.50;;;1.80;;
63444;SDS011;49573;47.682;9.170;2023-04-24T14:20:04;2.00;;;1.47;;
63444;SDS011;49573;47.682;9.170;2023-04-24T14:22:52;3.65;;;2.03;;
63444;SDS011;49573;47.682;9.170;2023-04-24T14:25:38;2.53;;;1.75;;
63444;SDS011;49573;47.682;9.170;2023-04-24T14:28:25;3.83;;;2.00;;
63444;SDS011;49573;47.682;9.170;2023-04-24T14:31:13;4.80;;;2.20;;
63444;SDS011;49573;47.682;9.170;2023-04-24T14:34:00;2.75;;;2.10;;
63444;SDS011;49573;47.682;9.170;2023-04-24T14:36:46;5.13;;;2.47;;
63444;SDS011;49573;47.682;9.170;2023-04-24T14:39:32;3.27;;;1.90;;
63444;SDS011;49573;47.682;9.170;2023-04-24T14:42:18;3.25;;;1.80;;
63444;SDS011;49573;47.682;9.170;2023-04-24T14:45:04;4.78;;;2.30;;
63444;SDS011;49573;47.682;9.170;2023-04-24T14:47:52;3.35;;;2.05;;
63444;SDS011;49573;47.682;9.170;2023-04-24T14:50:38;2.35;;;1.80;;
63444;SDS011;49573;47.682;9.170;2023-04-24T14:53:24;3.58;;;1.98;;
63444;SDS011;49573;47.682;9.170;2023-04-24T14:56:10;2.73;;;1.90;;
63444;SDS011;49573;47.682;9.170;2023-04-24T14:58:56;3.40;;;2.13;;
63444;SDS011;49573;47.682;9.170;2023-04-24T15:01:43;2.33;;;1.73;;
63444;SDS011;49573;47.682;9.170;2023-04-24T15:04:30;3.43;;;1.80;;
63444;SDS011;49573;47.682;9.170;2023-04-24T15:07:16;3.83;;;2.08;;
63444;SDS011;49573;47.682;9.170;2023-04-24T15:10:03;2.72;;;2.00;;
63444;SDS011;49573;47.682;9.170;2023-04-24T15:12:49;2.95;;;1.80;;
63444;SDS011;49573;47.682;9.170;2023-04-24T15:15:35;3.78;;;1.83;;
63444;SDS011;49573;47.682;9.170;2023-04-24T15:18:22;4.03;;;2.10;;
63444;SDS011;49573;47.682;9.170;2023-04-24T15:21:09;4.68;;;2.00;;
63444;SDS011;49573;47.682;9.170;2023-04-24T15:23:56;2.53;;;1.92;;
63444;SDS011;49573;47.682;9.170;2023-04-24T15:26:42;3.75;;;1.80;;
63444;SDS011;49573;47.682;9.170;2023-04-24T15:29:28;2.20;;;1.70;;
63444;SDS011;49573;47.682;9.170;2023-04-24T15:32:14;2.80;;;2.00;;
63444;SDS011;49573;47.682;9.170;2023-04-24T15:35:00;4.10;;;2.13;;
63444;SDS011;49573;47.682;9.170;2023-04-24T15:37:48;5.18;;;1.98;;
63444;SDS011;49573;47.682;9.170;2023-04-24T15:40:34;3.83;;;1.80;;
63444;SDS011;49573;47.682;9.170;2023-04-24T15:43:20;2.13;;;1.60;;
63444;SDS011;49573;47.682;9.170;2023-04-24T15:46:06;3.08;;;1.95;;
63444;SDS011;49573;47.682;9.170;2023-04-24T15:48:52;2.90;;;2.00;;
63444;SDS011;49573;47.682;9.170;2023-04-24T15:51:38;3.97;;;1.90;;
63444;SDS011;49573;47.682;9.170;2023-04-24T15:54:26;3.20;;;1.97;;
63444;SDS011;49573;47.682;9.170;2023-04-24T15:57:12;3.45;;;1.80;;
63444;SDS011;49573;47.682;9.170;2023-04-24T15:59:58;2.77;;;1.77;;
63444;SDS011;49573;47.682;9.170;2023-04-24T16:02:44;3.72;;;2.15;;
63444;SDS011;49573;47.682;9.170;2023-04-24T16:05:30;5.20;;;1.90;;
63444;SDS011;49573;47.682;9.170;2023-04-24T16:08:18;3.58;;;2.20;;
63444;SDS011;49573;47.682;9.170;2023-04-24T16:11:06;4.40;;;2.20;;
63444;SDS011;49573;47.682;9.170;2023-04-24T16:13:52;3.38;;;2.25;;
63444;SDS011;49573;47.682;9.170;2023-04-24T16:16:38;5.40;;;2.17;;
63444;SDS011;49573;47.682;9.170;2023-04-24T16:19:25;2.25;;;1.73;;
63444;SDS011;49573;47.682;9.170;2023-04-24T16:22:11;3.08;;;2.08;;
63444;SDS011;49573;47.682;9.170;2023-04-24T16:24:57;5.07;;;2.20;;
63444;SDS011;49573;47.682;9.170;2023-04-24T16:27:44;4.80;;;2.30;;
63444;SDS011;49573;47.682;9.170;2023-04-24T16:30:33;3.85;;;2.00;;
63444;SDS011;49573;47.682;9.170;2023-04-24T16:33:19;4.00;;;1.93;;
63444;SDS011;49573;47.682;9.170;2023-04-24T16:36:05;4.13;;;2.03;;
63444;SDS011;49573;47.682;9.170;2023-04-24T16:38:51;3.60;;;2.50;;
63444;SDS011;49573;47.682;9.170;2023-04-24T16:41:37;4.07;;;1.70;;
63444;SDS011;49573;47.682;9.170;2023-04-24T16:44:24;2.50;;;1.80;;
63444;SDS011;49573;47.682;9.170;2023-04-24T16:47:10;3.58;;;2.42;;
63444;SDS011;49573;47.682;9.170;2023-04-24T16:49:59;3.88;;;2.00;;
63444;SDS011;49573;47.682;9.170;2023-04-24T16:52:45;4.30;;;2.13;;
63444;SDS011;49573;47.682;9.170;2023-04-24T16:55:31;2.63;;;2.03;;
63444;SDS011;49573;47.682;9.170;2023-04-24T16:58:17;3.95;;;2.00;;
63444;SDS011;49573;47.682;9.170;2023-04-24T17:01:04;4.32;;;2.20;;
63444;SDS011;49573;47.682;9.170;2023-04-24T17:03:50;2.75;;;1.85;;